sensor_id;sensor_type;location;lat;lon;timestamp;temperature;humidity
33988;DHT22;37428;53.580;-1.666;2022-11-15T00:01:05;10.20;96.50
33988;DHT22;37428;53.580;-1.666;2022-11-15T00:04:34;10.10;94.40
33988;DHT22;37428;53.580;-1.666;2022-11-15T00:07:45;10.00;91.40
33988;DHT22;37428;53.580;-1.666;2022-11-15T00:11:09;9.90;89.70
33988;DHT22;37428;53.580;-1.666;2022-11-15T00:14:26;9.80;89.50
33988;DHT22;37428;53.580;-1.666;2022-11-15T00:17:30;9.80;89.20
33988;DHT22;37428;53.580;-1.666;2022-11-15T00:20:37;9.80;89.50
33988;DHT22;37428;53.580;-1.666;2022-11-15T00:23:41;9.70;89.60
33988;DHT22;37428;53.580;-1.666;2022-11-15T00:26:50;9.60;88.90
33988;DHT22;37428;53.580;-1.666;2022-11-15T00:29:52;9.60;89.50
33988;DHT22;37428;53.580;-1.666;2022-11-15T00:33:06;9.40;89.20
33988;DHT22;37428;53.580;-1.666;2022-11-15T00:36:12;9.40;89.50
33988;DHT22;37428;53.580;-1.666;2022-11-15T00:39:16;9.30;88.90
33988;DHT22;37428;53.580;-1.666;2022-11-15T00:42:20;9.10;88.20
33988;DHT22;37428;53.580;-1.666;2022-11-15T00:45:24;9.10;88.00
33988;DHT22;37428;53.580;-1.666;2022-11-15T00:48:28;9.00;87.30
33988;DHT22;37428;53.580;-1.666;2022-11-15T00:51:33;9.00;87.50
33988;DHT22;37428;53.580;-1.666;2022-11-15T00:54:37;8.90;88.00
33988;DHT22;37428;53.580;-1.666;2022-11-15T00:57:43;8.80;87.50
33988;DHT22;37428;53.580;-1.666;2022-11-15T01:00:46;8.80;87.20
33988;DHT22;37428;53.580;-1.666;2022-11-15T01:03:49;8.70;87.20
33988;DHT22;37428;53.580;-1.666;2022-11-15T01:07:00;8.70;87.80
33988;DHT22;37428;53.580;-1.666;2022-11-15T01:10:08;8.70;87.90
33988;DHT22;37428;53.580;-1.666;2022-11-15T01:13:12;8.60;88.10
33988;DHT22;37428;53.580;-1.666;2022-11-15T01:16:17;8.50;87.90
33988;DHT22;37428;53.580;-1.666;2022-11-15T01:19:34;8.50;88.10
33988;DHT22;37428;53.580;-1.666;2022-11-15T01:22:40;8.40;87.50
33988;DHT22;37428;53.580;-1.666;2022-11-15T01:25:44;8.30;88.40
33988;DHT22;37428;53.580;-1.666;2022-11-15T01:28:47;8.30;88.40
33988;DHT22;37428;53.580;-1.666;2022-11-15T01:31:49;8.20;88.90
33988;DHT22;37428;53.580;-1.666;2022-11-15T01:34:51;8.20;89.40
33988;DHT22;37428;53.580;-1.666;2022-11-15T01:37:55;8.20;90.20
33988;DHT22;37428;53.580;-1.666;2022-11-15T01:40:58;8.20;90.00
33988;DHT22;37428;53.580;-1.666;2022-11-15T01:47:51;8.20;89.80
33988;DHT22;37428;53.580;-1.666;2022-11-15T01:50:54;8.20;89.50
33988;DHT22;37428;53.580;-1.666;2022-11-15T01:54:02;8.20;89.60
33988;DHT22;37428;53.580;-1.666;2022-11-15T01:57:08;8.20;90.10
33988;DHT22;37428;53.580;-1.666;2022-11-15T02:00:12;8.20;89.40
33988;DHT22;37428;53.580;-1.666;2022-11-15T02:03:15;8.20;89.30
33988;DHT22;37428;53.580;-1.666;2022-11-15T02:06:17;8.10;89.20
33988;DHT22;37428;53.580;-1.666;2022-11-15T02:09:24;8.00;89.60
33988;DHT22;37428;53.580;-1.666;2022-11-15T02:12:36;8.00;90.10
33988;DHT22;37428;53.580;-1.666;2022-11-15T02:15:47;8.00;90.10
33988;DHT22;37428;53.580;-1.666;2022-11-15T02:18:57;8.00;90.40
33988;DHT22;37428;53.580;-1.666;2022-11-15T02:22:10;7.90;91.20
33988;DHT22;37428;53.580;-1.666;2022-11-15T02:25:38;8.00;91.60
33988;DHT22;37428;53.580;-1.666;2022-11-15T02:28:56;8.00;91.70
33988;DHT22;37428;53.580;-1.666;2022-11-15T02:32:09;8.00;91.90
33988;DHT22;37428;53.580;-1.666;2022-11-15T02:35:24;8.00;92.20
33988;DHT22;37428;53.580;-1.666;2022-11-15T02:38:48;8.00;92.20
33988;DHT22;37428;53.580;-1.666;2022-11-15T02:42:02;8.00;92.40
33988;DHT22;37428;53.580;-1.666;2022-11-15T02:45:37;8.00;92.30
33988;DHT22;37428;53.580;-1.666;2022-11-15T02:48:57;8.00;92.30
33988;DHT22;37428;53.580;-1.666;2022-11-15T02:52:06;8.00;92.50
33988;DHT22;37428;53.580;-1.666;2022-11-15T02:55:33;8.00;92.60
33988;DHT22;37428;53.580;-1.666;2022-11-15T02:58:53;8.10;92.70
33988;DHT22;37428;53.580;-1.666;2022-11-15T03:02:12;8.10;92.20
33988;DHT22;37428;53.580;-1.666;2022-11-15T03:05:33;8.10;92.40
33988;DHT22;37428;53.580;-1.666;2022-11-15T03:08:44;8.10;92.20
33988;DHT22;37428;53.580;-1.666;2022-11-15T03:11:56;8.10;91.80
33988;DHT22;37428;53.580;-1.666;2022-11-15T03:15:04;8.10;92.30
33988;DHT22;37428;53.580;-1.666;2022-11-15T03:18:12;8.10;92.30
33988;DHT22;37428;53.580;-1.666;2022-11-15T03:21:22;8.10;92.70
33988;DHT22;37428;53.580;-1.666;2022-11-15T03:24:25;8.00;92.90
33988;DHT22;37428;53.580;-1.666;2022-11-15T03:27:47;8.00;93.20
33988;DHT22;37428;53.580;-1.666;2022-11-15T03:30:53;7.90;93.50
33988;DHT22;37428;53.580;-1.666;2022-11-15T03:34:07;7.90;93.90
33988;DHT22;37428;53.580;-1.666;2022-11-15T03:37:29;7.90;93.90
33988;DHT22;37428;53.580;-1.666;2022-11-15T03:40:37;7.80;94.20
33988;DHT22;37428;53.580;-1.666;2022-11-15T03:43:59;7.70;94.90
33988;DHT22;37428;53.580;-1.666;2022-11-15T03:47:13;7.70;95.20
33988;DHT22;37428;53.580;-1.666;2022-11-15T03:50:24;7.80;96.00
33988;DHT22;37428;53.580;-1.666;2022-11-15T03:53:31;7.80;95.50
33988;DHT22;37428;53.580;-1.666;2022-11-15T03:56:33;8.00;95.40
33988;DHT22;37428;53.580;-1.666;2022-11-15T03:59:35;8.00;95.30
33988;DHT22;37428;53.580;-1.666;2022-11-15T04:02:39;8.10;95.50
33988;DHT22;37428;53.580;-1.666;2022-11-15T04:05:41;8.10;94.80
33988;DHT22;37428;53.580;-1.666;2022-11-15T04:08:48;8.10;94.70
33988;DHT22;37428;53.580;-1.666;2022-11-15T04:11:53;8.10;94.60
33988;DHT22;37428;53.580;-1.666;2022-11-15T04:14:55;8.10;94.30
33988;DHT22;37428;53.580;-1.666;2022-11-15T04:18:09;8.10;94.60
33988;DHT22;37428;53.580;-1.666;2022-11-15T04:21:12;8.00;94.90
33988;DHT22;37428;53.580;-1.666;2022-11-15T04:24:34;8.00;95.40
33988;DHT22;37428;53.580;-1.666;2022-11-15T04:27:36;8.00;95.70
33988;DHT22;37428;53.580;-1.666;2022-11-15T04:30:55;8.10;95.90
33988;DHT22;37428;53.580;-1.666;2022-11-15T04:33:58;8.10;95.60
33988;DHT22;37428;53.580;-1.666;2022-11-15T04:37:03;8.10;95.70
33988;DHT22;37428;53.580;-1.666;2022-11-15T04:40:18;8.20;96.00
33988;DHT22;37428;53.580;-1.666;2022-11-15T04:43:23;8.20;96.00
33988;DHT22;37428;53.580;-1.666;2022-11-15T04:46:32;8.30;96.00
33988;DHT22;37428;53.580;-1.666;2022-11-15T04:49:34;8.30;95.80
33988;DHT22;37428;53.580;-1.666;2022-11-15T04:52:36;8.30;95.60
33988;DHT22;37428;53.580;-1.666;2022-11-15T04:55:44;8.30;95.50
33988;DHT22;37428;53.580;-1.666;2022-11-15T04:58:48;8.30;95.60
33988;DHT22;37428;53.580;-1.666;2022-11-15T05:01:58;8.20;95.40
33988;DHT22;37428;53.580;-1.666;2022-11-15T05:05:03;8.20;95.90
33988;DHT22;37428;53.580;-1.666;2022-11-15T05:08:11;8.20;96.30
33988;DHT22;37428;53.580;-1.666;2022-11-15T05:11:15;8.30;96.50
33988;DHT22;37428;53.580;-1.666;2022-11-15T05:14:19;8.30;96.20
33988;DHT22;37428;53.580;-1.666;2022-11-15T05:17:23;8.30;96.20
33988;DHT22;37428;53.580;-1.666;2022-11-15T05:20:25;8.30;96.40
33988;DHT22;37428;53.580;-1.666;2022-11-15T05:23:34;8.30;96.50
33988;DHT22;37428;53.580;-1.666;2022-11-15T05:26:39;8.30;97.20
33988;DHT22;37428;53.580;-1.666;2022-11-15T05:29:43;8.30;97.60
33988;DHT22;37428;53.580;-1.666;2022-11-15T05:32:53;8.20;97.90
33988;DHT22;37428;53.580;-1.666;2022-11-15T05:36:01;8.20;98.20
33988;DHT22;37428;53.580;-1.666;2022-11-15T05:39:07;8.20;98.40
33988;DHT22;37428;53.580;-1.666;2022-11-15T05:42:12;8.20;98.80
33988;DHT22;37428;53.580;-1.666;2022-11-15T05:45:16;8.20;99.10
33988;DHT22;37428;53.580;-1.666;2022-11-15T05:48:33;8.30;99.40
33988;DHT22;37428;53.580;-1.666;2022-11-15T05:51:38;8.30;99.60
33988;DHT22;37428;53.580;-1.666;2022-11-15T05:54:42;8.30;99.60
33988;DHT22;37428;53.580;-1.666;2022-11-15T05:57:48;8.30;99.80
33988;DHT22;37428;53.580;-1.666;2022-11-15T06:01:21;8.30;99.90
33988;DHT22;37428;53.580;-1.666;2022-11-15T06:04:28;8.30;99.90
33988;DHT22;37428;53.580;-1.666;2022-11-15T06:07:32;8.30;99.90
33988;DHT22;37428;53.580;-1.666;2022-11-15T06:10:40;8.30;99.90
33988;DHT22;37428;53.580;-1.666;2022-11-15T06:13:45;8.30;99.90
33988;DHT22;37428;53.580;-1.666;2022-11-15T06:16:50;8.30;99.90
33988;DHT22;37428;53.580;-1.666;2022-11-15T06:19:56;8.30;99.90
33988;DHT22;37428;53.580;-1.666;2022-11-15T06:22:58;8.30;99.90
33988;DHT22;37428;53.580;-1.666;2022-11-15T06:26:01;8.30;99.90
33988;DHT22;37428;53.580;-1.666;2022-11-15T06:29:05;8.30;99.90
33988;DHT22;37428;53.580;-1.666;2022-11-15T06:32:07;8.40;99.90
33988;DHT22;37428;53.580;-1.666;2022-11-15T06:35:10;8.30;99.90
33988;DHT22;37428;53.580;-1.666;2022-11-15T06:38:19;8.30;99.90
33988;DHT22;37428;53.580;-1.666;2022-11-15T06:41:23;8.40;99.90
33988;DHT22;37428;53.580;-1.666;2022-11-15T06:44:28;8.40;99.90
33988;DHT22;37428;53.580;-1.666;2022-11-15T06:47:32;8.40;99.90
33988;DHT22;37428;53.580;-1.666;2022-11-15T06:50:50;8.40;99.90
33988;DHT22;37428;53.580;-1.666;2022-11-15T06:53:52;8.40;99.90
33988;DHT22;37428;53.580;-1.666;2022-11-15T06:56:54;8.40;99.90
33988;DHT22;37428;53.580;-1.666;2022-11-15T07:00:01;8.40;99.90
33988;DHT22;37428;53.580;-1.666;2022-11-15T07:03:04;8.30;99.90
33988;DHT22;37428;53.580;-1.666;2022-11-15T07:06:12;8.30;99.90
33988;DHT22;37428;53.580;-1.666;2022-11-15T07:09:15;8.30;99.90
33988;DHT22;37428;53.580;-1.666;2022-11-15T07:12:17;8.30;99.90
33988;DHT22;37428;53.580;-1.666;2022-11-15T07:15:23;8.30;99.90
33988;DHT22;37428;53.580;-1.666;2022-11-15T07:18:27;8.30;99.90
33988;DHT22;37428;53.580;-1.666;2022-11-15T07:21:32;8.30;99.90
33988;DHT22;37428;53.580;-1.666;2022-11-15T07:24:39;8.30;99.90
33988;DHT22;37428;53.580;-1.666;2022-11-15T07:27:42;8.30;99.90
33988;DHT22;37428;53.580;-1.666;2022-11-15T07:30:47;8.30;99.90
33988;DHT22;37428;53.580;-1.666;2022-11-15T07:33:49;8.30;99.90
33988;DHT22;37428;53.580;-1.666;2022-11-15T07:36:57;8.30;99.90
33988;DHT22;37428;53.580;-1.666;2022-11-15T07:39:59;8.30;99.90
33988;DHT22;37428;53.580;-1.666;2022-11-15T07:43:02;8.30;99.90
33988;DHT22;37428;53.580;-1.666;2022-11-15T07:46:08;8.30;99.90
33988;DHT22;37428;53.580;-1.666;2022-11-15T07:49:14;8.30;99.90
33988;DHT22;37428;53.580;-1.666;2022-11-15T07:52:18;8.30;99.90
33988;DHT22;37428;53.580;-1.666;2022-11-15T07:55:25;8.30;99.90
33988;DHT22;37428;53.580;-1.666;2022-11-15T07:58:27;8.30;99.90
33988;DHT22;37428;53.580;-1.666;2022-11-15T08:01:35;8.30;99.90
33988;DHT22;37428;53.580;-1.666;2022-11-15T08:04:42;8.40;99.90
33988;DHT22;37428;53.580;-1.666;2022-11-15T08:07:44;8.40;99.90
33988;DHT22;37428;53.580;-1.666;2022-11-15T08:10:46;8.40;99.90
33988;DHT22;37428;53.580;-1.666;2022-11-15T08:14:08;8.50;99.90
33988;DHT22;37428;53.580;-1.666;2022-11-15T08:17:16;8.50;99.90
33988;DHT22;37428;53.580;-1.666;2022-11-15T08:20:20;8.50;99.90
33988;DHT22;37428;53.580;-1.666;2022-11-15T08:23:24;8.50;99.90
33988;DHT22;37428;53.580;-1.666;2022-11-15T08:26:28;8.60;99.90
33988;DHT22;37428;53.580;-1.666;2022-11-15T08:29:38;8.60;99.90
33988;DHT22;37428;53.580;-1.666;2022-11-15T08:32:43;8.70;99.90
33988;DHT22;37428;53.580;-1.666;2022-11-15T08:35:48;8.60;99.90
33988;DHT22;37428;53.580;-1.666;2022-11-15T08:38:50;8.70;99.90
33988;DHT22;37428;53.580;-1.666;2022-11-15T08:41:57;8.70;99.90
33988;DHT22;37428;53.580;-1.666;2022-11-15T08:44:59;8.80;99.90
33988;DHT22;37428;53.580;-1.666;2022-11-15T08:48:03;8.80;99.90
33988;DHT22;37428;53.580;-1.666;2022-11-15T08:51:06;8.80;99.90
33988;DHT22;37428;53.580;-1.666;2022-11-15T08:54:08;8.90;99.90
33988;DHT22;37428;53.580;-1.666;2022-11-15T08:57:12;8.90;99.90
33988;DHT22;37428;53.580;-1.666;2022-11-15T09:00:14;8.90;99.90
33988;DHT22;37428;53.580;-1.666;2022-11-15T09:03:21;9.00;99.90
33988;DHT22;37428;53.580;-1.666;2022-11-15T09:06:24;9.00;99.90
33988;DHT22;37428;53.580;-1.666;2022-11-15T09:09:26;9.00;99.90
33988;DHT22;37428;53.580;-1.666;2022-11-15T09:12:33;9.00;99.90
33988;DHT22;37428;53.580;-1.666;2022-11-15T09:15:35;9.10;99.90
33988;DHT22;37428;53.580;-1.666;2022-11-15T09:18:44;9.10;99.90
33988;DHT22;37428;53.580;-1.666;2022-11-15T09:21:51;9.20;99.90
33988;DHT22;37428;53.580;-1.666;2022-11-15T09:25:04;9.20;99.90
33988;DHT22;37428;53.580;-1.666;2022-11-15T09:28:10;9.20;99.90
33988;DHT22;37428;53.580;-1.666;2022-11-15T09:31:13;9.20;99.90
33988;DHT22;37428;53.580;-1.666;2022-11-15T09:34:17;9.20;99.90
33988;DHT22;37428;53.580;-1.666;2022-11-15T09:37:19;9.30;99.90
33988;DHT22;37428;53.580;-1.666;2022-11-15T09:40:22;9.30;99.90
33988;DHT22;37428;53.580;-1.666;2022-11-15T09:43:34;9.30;99.90
33988;DHT22;37428;53.580;-1.666;2022-11-15T09:46:47;9.30;99.90
33988;DHT22;37428;53.580;-1.666;2022-11-15T09:50:07;9.30;99.90
33988;DHT22;37428;53.580;-1.666;2022-11-15T09:53:21;9.40;99.90
33988;DHT22;37428;53.580;-1.666;2022-11-15T09:56:28;9.40;99.90
33988;DHT22;37428;53.580;-1.666;2022-11-15T09:59:44;9.40;99.90
33988;DHT22;37428;53.580;-1.666;2022-11-15T10:03:08;9.40;99.90
33988;DHT22;37428;53.580;-1.666;2022-11-15T10:06:36;9.50;99.90
33988;DHT22;37428;53.580;-1.666;2022-11-15T10:09:46;9.40;99.90
33988;DHT22;37428;53.580;-1.666;2022-11-15T10:12:50;9.50;99.90
33988;DHT22;37428;53.580;-1.666;2022-11-15T10:15:57;9.50;99.90
33988;DHT22;37428;53.580;-1.666;2022-11-15T10:19:08;9.50;99.90
33988;DHT22;37428;53.580;-1.666;2022-11-15T10:22:34;9.50;99.90
33988;DHT22;37428;53.580;-1.666;2022-11-15T10:25:38;9.50;99.90
33988;DHT22;37428;53.580;-1.666;2022-11-15T10:28:42;9.50;99.90
33988;DHT22;37428;53.580;-1.666;2022-11-15T10:32:15;9.40;99.90
33988;DHT22;37428;53.580;-1.666;2022-11-15T10:35:28;9.50;99.90
33988;DHT22;37428;53.580;-1.666;2022-11-15T10:38:59;9.50;99.90
33988;DHT22;37428;53.580;-1.666;2022-11-15T10:42:17;9.50;99.90
33988;DHT22;37428;53.580;-1.666;2022-11-15T10:45:26;9.50;99.90
33988;DHT22;37428;53.580;-1.666;2022-11-15T10:48:29;9.50;99.90
33988;DHT22;37428;53.580;-1.666;2022-11-15T10:51:32;9.60;99.90
33988;DHT22;37428;53.580;-1.666;2022-11-15T10:54:48;9.60;99.90
33988;DHT22;37428;53.580;-1.666;2022-11-15T10:57:54;9.70;99.90
33988;DHT22;37428;53.580;-1.666;2022-11-15T11:01:11;9.70;99.90
33988;DHT22;37428;53.580;-1.666;2022-11-15T11:04:21;9.70;99.90
33988;DHT22;37428;53.580;-1.666;2022-11-15T11:07:25;9.70;99.90
33988;DHT22;37428;53.580;-1.666;2022-11-15T11:10:39;9.80;99.90
33988;DHT22;37428;53.580;-1.666;2022-11-15T11:14:11;9.80;99.90
33988;DHT22;37428;53.580;-1.666;2022-11-15T11:17:22;9.90;99.90
33988;DHT22;37428;53.580;-1.666;2022-11-15T11:20:41;9.90;99.90
33988;DHT22;37428;53.580;-1.666;2022-11-15T11:23:45;9.90;99.90
33988;DHT22;37428;53.580;-1.666;2022-11-15T11:27:13;9.90;99.90
33988;DHT22;37428;53.580;-1.666;2022-11-15T11:30:32;10.00;99.90
33988;DHT22;37428;53.580;-1.666;2022-11-15T11:33:42;10.00;99.90
33988;DHT22;37428;53.580;-1.666;2022-11-15T11:36:59;10.00;99.90
33988;DHT22;37428;53.580;-1.666;2022-11-15T11:40:24;10.00;99.90
33988;DHT22;37428;53.580;-1.666;2022-11-15T11:43:40;10.10;99.90
33988;DHT22;37428;53.580;-1.666;2022-11-15T11:47:03;10.00;99.90
33988;DHT22;37428;53.580;-1.666;2022-11-15T11:50:15;10.10;99.90
33988;DHT22;37428;53.580;-1.666;2022-11-15T11:53:27;10.10;99.90
33988;DHT22;37428;53.580;-1.666;2022-11-15T11:56:46;10.10;99.90
33988;DHT22;37428;53.580;-1.666;2022-11-15T11:59:55;10.10;99.90
33988;DHT22;37428;53.580;-1.666;2022-11-15T12:03:27;10.10;99.90
33988;DHT22;37428;53.580;-1.666;2022-11-15T12:06:38;10.20;99.90
33988;DHT22;37428;53.580;-1.666;2022-11-15T12:09:46;10.20;99.90
33988;DHT22;37428;53.580;-1.666;2022-11-15T12:13:04;10.20;99.90
33988;DHT22;37428;53.580;-1.666;2022-11-15T12:16:19;10.20;99.90
33988;DHT22;37428;53.580;-1.666;2022-11-15T12:19:26;10.30;99.90
33988;DHT22;37428;53.580;-1.666;2022-11-15T12:22:45;10.30;99.90
33988;DHT22;37428;53.580;-1.666;2022-11-15T12:26:17;10.30;99.90
33988;DHT22;37428;53.580;-1.666;2022-11-15T12:29:29;10.30;99.90
33988;DHT22;37428;53.580;-1.666;2022-11-15T12:32:52;10.40;99.90
33988;DHT22;37428;53.580;-1.666;2022-11-15T12:36:01;10.40;99.90
33988;DHT22;37428;53.580;-1.666;2022-11-15T12:39:05;10.40;99.90
33988;DHT22;37428;53.580;-1.666;2022-11-15T12:42:36;10.40;99.90
33988;DHT22;37428;53.580;-1.666;2022-11-15T12:45:55;10.50;99.90
33988;DHT22;37428;53.580;-1.666;2022-11-15T12:49:44;10.50;99.90
33988;DHT22;37428;53.580;-1.666;2022-11-15T12:56:24;10.60;99.90
33988;DHT22;37428;53.580;-1.666;2022-11-15T13:00:36;10.60;99.90
33988;DHT22;37428;53.580;-1.666;2022-11-15T13:03:32;10.60;99.90
33988;DHT22;37428;53.580;-1.666;2022-11-15T13:06:56;10.60;99.90
33988;DHT22;37428;53.580;-1.666;2022-11-15T13:10:00;10.60;99.90
33988;DHT22;37428;53.580;-1.666;2022-11-15T13:14:11;10.60;99.90
33988;DHT22;37428;53.580;-1.666;2022-11-15T13:17:34;10.60;99.90
33988;DHT22;37428;53.580;-1.666;2022-11-15T13:20:36;10.60;99.90
33988;DHT22;37428;53.580;-1.666;2022-11-15T13:23:41;10.70;99.90
33988;DHT22;37428;53.580;-1.666;2022-11-15T13:26:45;10.70;99.90
33988;DHT22;37428;53.580;-1.666;2022-11-15T13:29:49;10.70;99.90
33988;DHT22;37428;53.580;-1.666;2022-11-15T13:33:22;10.60;99.90
33988;DHT22;37428;53.580;-1.666;2022-11-15T13:36:47;10.60;99.90
33988;DHT22;37428;53.580;-1.666;2022-11-15T13:39:50;10.60;99.90
33988;DHT22;37428;53.580;-1.666;2022-11-15T13:42:55;10.60;99.90
33988;DHT22;37428;53.580;-1.666;2022-11-15T13:46:11;10.60;99.90
33988;DHT22;37428;53.580;-1.666;2022-11-15T13:49:16;10.70;99.90
33988;DHT22;37428;53.580;-1.666;2022-11-15T13:52:19;10.70;99.90
33988;DHT22;37428;53.580;-1.666;2022-11-15T13:55:25;10.70;99.90
33988;DHT22;37428;53.580;-1.666;2022-11-15T13:58:31;10.70;99.90
33988;DHT22;37428;53.580;-1.666;2022-11-15T14:05:21;10.70;99.90
33988;DHT22;37428;53.580;-1.666;2022-11-15T14:08:25;10.80;99.90
33988;DHT22;37428;53.580;-1.666;2022-11-15T14:11:33;10.80;99.90
33988;DHT22;37428;53.580;-1.666;2022-11-15T14:14:45;10.90;99.90
33988;DHT22;37428;53.580;-1.666;2022-11-15T14:18:37;10.90;99.90
33988;DHT22;37428;53.580;-1.666;2022-11-15T14:21:23;11.00;99.90
33988;DHT22;37428;53.580;-1.666;2022-11-15T14:24:31;11.00;99.90
33988;DHT22;37428;53.580;-1.666;2022-11-15T14:35:51;11.00;99.90
33988;DHT22;37428;53.580;-1.666;2022-11-15T14:39:31;11.10;99.90
33988;DHT22;37428;53.580;-1.666;2022-11-15T14:42:49;11.10;99.90
33988;DHT22;37428;53.580;-1.666;2022-11-15T14:46:03;11.10;99.90
33988;DHT22;37428;53.580;-1.666;2022-11-15T14:49:30;11.10;99.90
33988;DHT22;37428;53.580;-1.666;2022-11-15T14:52:37;11.10;99.90
33988;DHT22;37428;53.580;-1.666;2022-11-15T14:55:51;11.00;99.90
33988;DHT22;37428;53.580;-1.666;2022-11-15T14:58:55;10.80;99.50
33988;DHT22;37428;53.580;-1.666;2022-11-15T15:01:57;10.60;98.80
33988;DHT22;37428;53.580;-1.666;2022-11-15T15:05:29;10.40;98.40
33988;DHT22;37428;53.580;-1.666;2022-11-15T15:08:34;10.20;98.90
33988;DHT22;37428;53.580;-1.666;2022-11-15T15:12:12;10.10;99.30
33988;DHT22;37428;53.580;-1.666;2022-11-15T15:15:34;10.00;99.70
33988;DHT22;37428;53.580;-1.666;2022-11-15T15:18:36;10.00;99.90
33988;DHT22;37428;53.580;-1.666;2022-11-15T15:21:55;10.10;99.90
33988;DHT22;37428;53.580;-1.666;2022-11-15T15:25:02;10.00;99.90
33988;DHT22;37428;53.580;-1.666;2022-11-15T15:28:18;10.00;99.90
33988;DHT22;37428;53.580;-1.666;2022-11-15T15:31:36;9.90;99.50
33988;DHT22;37428;53.580;-1.666;2022-11-15T15:34:59;9.80;98.60
33988;DHT22;37428;53.580;-1.666;2022-11-15T15:38:17;9.70;97.60
33988;DHT22;37428;53.580;-1.666;2022-11-15T15:41:29;9.60;98.10
33988;DHT22;37428;53.580;-1.666;2022-11-15T15:44:34;9.50;97.90
33988;DHT22;37428;53.580;-1.666;2022-11-15T15:47:44;9.50;98.40
33988;DHT22;37428;53.580;-1.666;2022-11-15T15:51:22;9.40;98.80
33988;DHT22;37428;53.580;-1.666;2022-11-15T15:54:39;9.30;98.50
33988;DHT22;37428;53.580;-1.666;2022-11-15T15:57:44;9.20;98.60
33988;DHT22;37428;53.580;-1.666;2022-11-15T16:00:51;9.20;99.00
33988;DHT22;37428;53.580;-1.666;2022-11-15T16:03:59;9.10;98.70
33988;DHT22;37428;53.580;-1.666;2022-11-15T16:07:16;9.10;98.70
33988;DHT22;37428;53.580;-1.666;2022-11-15T16:10:24;9.10;99.30
33988;DHT22;37428;53.580;-1.666;2022-11-15T16:13:27;9.10;98.90
33988;DHT22;37428;53.580;-1.666;2022-11-15T16:16:40;9.10;99.00
33988;DHT22;37428;53.580;-1.666;2022-11-15T16:19:49;9.00;98.60
33988;DHT22;37428;53.580;-1.666;2022-11-15T16:22:52;9.10;98.60
33988;DHT22;37428;53.580;-1.666;2022-11-15T16:26:20;9.00;98.50
33988;DHT22;37428;53.580;-1.666;2022-11-15T16:29:30;9.00;98.80
33988;DHT22;37428;53.580;-1.666;2022-11-15T16:32:35;9.00;99.20
33988;DHT22;37428;53.580;-1.666;2022-11-15T16:35:41;8.90;98.50
33988;DHT22;37428;53.580;-1.666;2022-11-15T16:38:53;8.90;99.00
33988;DHT22;37428;53.580;-1.666;2022-11-15T16:41:55;8.90;99.20
33988;DHT22;37428;53.580;-1.666;2022-11-15T16:45:07;8.90;98.50
33988;DHT22;37428;53.580;-1.666;2022-11-15T16:48:21;8.90;98.40
33988;DHT22;37428;53.580;-1.666;2022-11-15T16:51:28;8.80;98.60
33988;DHT22;37428;53.580;-1.666;2022-11-15T16:54:36;8.80;98.80
33988;DHT22;37428;53.580;-1.666;2022-11-15T16:57:39;8.90;98.30
33988;DHT22;37428;53.580;-1.666;2022-11-15T17:00:44;8.80;97.60
33988;DHT22;37428;53.580;-1.666;2022-11-15T17:03:58;8.80;96.50
33988;DHT22;37428;53.580;-1.666;2022-11-15T17:07:12;8.70;96.60
33988;DHT22;37428;53.580;-1.666;2022-11-15T17:10:39;8.70;96.00
33988;DHT22;37428;53.580;-1.666;2022-11-15T17:13:58;8.70;95.50
33988;DHT22;37428;53.580;-1.666;2022-11-15T17:17:08;8.70;95.30
33988;DHT22;37428;53.580;-1.666;2022-11-15T17:20:41;8.60;94.70
33988;DHT22;37428;53.580;-1.666;2022-11-15T17:23:46;8.60;94.00
33988;DHT22;37428;53.580;-1.666;2022-11-15T17:26:53;8.60;93.70
33988;DHT22;37428;53.580;-1.666;2022-11-15T17:29:55;8.60;93.80
33988;DHT22;37428;53.580;-1.666;2022-11-15T17:32:57;8.60;93.70
33988;DHT22;37428;53.580;-1.666;2022-11-15T17:36:06;8.60;93.10
33988;DHT22;37428;53.580;-1.666;2022-11-15T17:39:14;8.50;92.70
33988;DHT22;37428;53.580;-1.666;2022-11-15T17:45:57;8.40;91.30
33988;DHT22;37428;53.580;-1.666;2022-11-15T17:49:00;8.30;92.10
33988;DHT22;37428;53.580;-1.666;2022-11-15T17:52:08;8.30;92.20
33988;DHT22;37428;53.580;-1.666;2022-11-15T17:55:11;8.30;92.20
33988;DHT22;37428;53.580;-1.666;2022-11-15T17:58:15;8.30;92.40
33988;DHT22;37428;53.580;-1.666;2022-11-15T18:01:20;8.20;91.50
33988;DHT22;37428;53.580;-1.666;2022-11-15T18:04:24;8.20;91.30
33988;DHT22;37428;53.580;-1.666;2022-11-15T18:07:29;8.10;91.30
33988;DHT22;37428;53.580;-1.666;2022-11-15T18:10:32;8.10;91.80
33988;DHT22;37428;53.580;-1.666;2022-11-15T18:13:34;8.10;91.50
33988;DHT22;37428;53.580;-1.666;2022-11-15T18:16:37;8.10;91.10
33988;DHT22;37428;53.580;-1.666;2022-11-15T18:19:41;8.10;91.60
33988;DHT22;37428;53.580;-1.666;2022-11-15T18:22:51;8.10;91.40
33988;DHT22;37428;53.580;-1.666;2022-11-15T18:25:54;8.10;91.80
33988;DHT22;37428;53.580;-1.666;2022-11-15T18:29:02;8.10;91.30
33988;DHT22;37428;53.580;-1.666;2022-11-15T18:32:06;8.00;91.80
33988;DHT22;37428;53.580;-1.666;2022-11-15T18:35:13;8.00;92.20
33988;DHT22;37428;53.580;-1.666;2022-11-15T18:38:17;7.90;92.10
33988;DHT22;37428;53.580;-1.666;2022-11-15T18:41:19;7.90;92.30
33988;DHT22;37428;53.580;-1.666;2022-11-15T18:44:27;7.80;91.80
33988;DHT22;37428;53.580;-1.666;2022-11-15T18:47:29;7.70;92.20
33988;DHT22;37428;53.580;-1.666;2022-11-15T18:50:32;7.70;92.60
33988;DHT22;37428;53.580;-1.666;2022-11-15T18:53:46;7.80;92.90
33988;DHT22;37428;53.580;-1.666;2022-11-15T18:56:50;7.80;92.70
33988;DHT22;37428;53.580;-1.666;2022-11-15T18:59:54;7.80;92.10
33988;DHT22;37428;53.580;-1.666;2022-11-15T19:02:56;7.80;91.40
33988;DHT22;37428;53.580;-1.666;2022-11-15T19:06:05;7.80;90.90
33988;DHT22;37428;53.580;-1.666;2022-11-15T19:09:13;7.80;91.00
33988;DHT22;37428;53.580;-1.666;2022-11-15T19:12:17;7.80;90.60
33988;DHT22;37428;53.580;-1.666;2022-11-15T19:15:19;7.80;90.60
33988;DHT22;37428;53.580;-1.666;2022-11-15T19:18:22;7.70;90.40
33988;DHT22;37428;53.580;-1.666;2022-11-15T19:21:25;7.70;90.90
33988;DHT22;37428;53.580;-1.666;2022-11-15T19:24:43;7.70;90.50
33988;DHT22;37428;53.580;-1.666;2022-11-15T19:27:47;7.70;90.00
33988;DHT22;37428;53.580;-1.666;2022-11-15T19:30:49;7.70;90.20
33988;DHT22;37428;53.580;-1.666;2022-11-15T19:33:52;7.60;90.40
33988;DHT22;37428;53.580;-1.666;2022-11-15T19:36:54;7.60;90.30
33988;DHT22;37428;53.580;-1.666;2022-11-15T19:39:58;7.60;90.50
33988;DHT22;37428;53.580;-1.666;2022-11-15T19:43:00;7.70;90.20
33988;DHT22;37428;53.580;-1.666;2022-11-15T19:46:03;7.70;90.50
33988;DHT22;37428;53.580;-1.666;2022-11-15T19:49:06;7.80;89.60
33988;DHT22;37428;53.580;-1.666;2022-11-15T19:52:10;7.80;89.50
33988;DHT22;37428;53.580;-1.666;2022-11-15T19:55:14;7.80;89.60
33988;DHT22;37428;53.580;-1.666;2022-11-15T19:58:17;7.80;89.20
33988;DHT22;37428;53.580;-1.666;2022-11-15T20:01:20;7.80;89.30
33988;DHT22;37428;53.580;-1.666;2022-11-15T20:04:23;7.80;89.60
33988;DHT22;37428;53.580;-1.666;2022-11-15T20:07:25;7.80;89.60
33988;DHT22;37428;53.580;-1.666;2022-11-15T20:10:29;7.80;90.00
33988;DHT22;37428;53.580;-1.666;2022-11-15T20:13:31;7.70;89.70
33988;DHT22;37428;53.580;-1.666;2022-11-15T20:16:33;7.70;89.40